Skip Navigation Links
NOAA logo - Click to go to the NOAA homepage
NOAA's National Weather Service
Alaska Aviation Weather Unit
  NWS logo - Click to go to the NWS homepage
Left Navbar Graphic     12 AKDT = 20 GMT

   
NOAA is celebrating 200 years of science, service, and stewardship. Visit the NOAA 200th celebration Web site to learn more.
USA.gov is the U.S. Government's official Web portal to all Federal, state and local government Web resources and services.
Facebook
NWS on Facebook

Important Change Regarding the AAWU Web Presence

 

Over the last several months, the AAWU has been working to navigate its webpages to a nationally supported server. Security, as well as other needs, have necessitated the change.  We have been given an extension for the site changeover while we diligently work at addressing feedback received. As of July 14, 2017, aawu.arh.noaa.gov will be discontinued. The new AAWU web address is weather.gov/aawu. It is now live and will run in-parallel with the old site until it is discontinued on July 14, 2017. Please continue to send any feedback or questions regarding the new webpages to nws.ar.aawu.webauthors@noaa.gov.  Thank you for your patience during this time of transition.
AAWU Home :: Display TAF Add Bookmark
TAF CYUB 251838Z 2519/2605 29022G32KT P6SM OVC012 TEMPO 2519/2605 3SM
     -DZ BR SCT005 OVC008
     BECMG 2522/2524 32015KT
    RMK NXT FCST BY 260100Z=

METAR CYUB 251400Z 29024G29KT 10SM BKN015 BKN021 09/06 A2978 RMK SC5SC1 CIG RAG SLP085= METAR CYUB 251500Z 28027KT 10SM BKN015 09/06 A2979 RMK SC6 SLP090= SPECI CYUB 251543Z 29027G34KT 10SM BKN012 08/06 A2980 RMK SC7 CIG RAG SLP093= METAR CYUB 251600Z 28023G36KT 10SM OVC012 08/06 A2980 RMK SC8 CIG RAG SLP094= SPECI CYUB 251639Z 28024G33KT 10SM -DZ OVC011 07/06 A2981 RMK ST8 CIG RAG SLP097= METAR CYUB 251700Z 29024G31KT 8SM -DZ OVC010 07/06 A2982 RMK ST8 CIG RAG SLP099= SPECI CYUB 251705Z 28023G33KT 7SM -DZ OVC009 07/06 A2982 RMK ST8 CIG RAG SLP099= METAR CYUB 251800Z 28024G33KT 8SM -DZ OVC009 07/05 A2983 RMK ST8 CIG RAG SLP104= SPECI CYUB 251844Z 28024G31KT 10SM BKN011 OVC024 07/06 A2985 RMK ST6SC2 CIG RAG SLP108= METAR CYUB 251900Z 27026G32KT 10SM OVC010 07/06 A2985 RMK ST8 CIG RAG SLP109= SPECI CYUB 251927Z 28026G31KT 10SM OVC009 08/06 A2986 RMK ST8 CIG RAG SLP112= METAR CYUB 252000Z 30026G32KT 10SM OVC009 07/05 A2987 RMK ST8 CIG RAG SLP115=
 Alaska TAF Map

NOAA's National Weather Service
Alaska Aviation Weather Unit
6930 Sand Lake Road
Anchorage, AK 99502-1845
Disclaimer
Credits
Glossary
Privacy Policy
About Us
Career Opportunities
Contact AAWU Internet Services Site last modified: April, 17th 2012